sensor_id;sensor_type;location;lat;lon;timestamp;P1;durP1;ratioP1;P2;durP2;ratioP2
76447;SDS011;65284;51.040;13.722;2023-06-26T00:02:07;8.85;;;5.40;;
76447;SDS011;65284;51.040;13.722;2023-06-26T00:04:34;8.73;;;5.45;;
76447;SDS011;65284;51.040;13.722;2023-06-26T00:07:01;7.57;;;5.30;;
76447;SDS011;65284;51.040;13.722;2023-06-26T00:09:28;6.90;;;5.18;;
76447;SDS011;65284;51.040;13.722;2023-06-26T00:11:54;7.03;;;5.05;;
76447;SDS011;65284;51.040;13.722;2023-06-26T00:14:21;10.88;;;5.40;;
76447;SDS011;65284;51.040;13.722;2023-06-26T00:16:47;9.90;;;5.32;;
76447;SDS011;65284;51.040;13.722;2023-06-26T00:19:17;8.07;;;5.05;;
76447;SDS011;65284;51.040;13.722;2023-06-26T00:21:44;14.20;;;8.43;;
76447;SDS011;65284;51.040;13.722;2023-06-26T00:24:14;11.45;;;6.32;;
76447;SDS011;65284;51.040;13.722;2023-06-26T00:26:41;7.97;;;5.38;;
76447;SDS011;65284;51.040;13.722;2023-06-26T00:29:07;11.68;;;5.38;;
76447;SDS011;65284;51.040;13.722;2023-06-26T00:31:33;12.23;;;6.18;;
76447;SDS011;65284;51.040;13.722;2023-06-26T00:34:01;8.52;;;5.18;;
76447;SDS011;65284;51.040;13.722;2023-06-26T00:36:28;12.07;;;8.25;;
76447;SDS011;65284;51.040;13.722;2023-06-26T00:38:54;20.63;;;12.80;;
76447;SDS011;65284;51.040;13.722;2023-06-26T00:41:21;12.07;;;8.02;;
76447;SDS011;65284;51.040;13.722;2023-06-26T00:43:48;8.88;;;6.53;;
76447;SDS011;65284;51.040;13.722;2023-06-26T00:46:16;8.05;;;5.82;;
76447;SDS011;65284;51.040;13.722;2023-06-26T00:48:43;11.15;;;6.68;;
76447;SDS011;65284;51.040;13.722;2023-06-26T00:51:11;21.02;;;13.50;;
76447;SDS011;65284;51.040;13.722;2023-06-26T00:53:38;16.20;;;10.73;;
76447;SDS011;65284;51.040;13.722;2023-06-26T00:56:05;15.48;;;11.00;;
76447;SDS011;65284;51.040;13.722;2023-06-26T00:58:33;7.38;;;5.47;;
76447;SDS011;65284;51.040;13.722;2023-06-26T01:00:59;7.78;;;5.88;;
76447;SDS011;65284;51.040;13.722;2023-06-26T01:03:27;7.70;;;5.45;;
76447;SDS011;65284;51.040;13.722;2023-06-26T01:05:54;8.30;;;5.07;;
76447;SDS011;65284;51.040;13.722;2023-06-26T01:08:25;7.90;;;5.00;;
76447;SDS011;65284;51.040;13.722;2023-06-26T01:10:52;9.95;;;5.20;;
76447;SDS011;65284;51.040;13.722;2023-06-26T01:13:19;6.65;;;4.68;;
76447;SDS011;65284;51.040;13.722;2023-06-26T01:15:46;7.07;;;4.90;;
76447;SDS011;65284;51.040;13.722;2023-06-26T01:18:12;7.80;;;5.18;;
76447;SDS011;65284;51.040;13.722;2023-06-26T01:20:41;12.25;;;9.25;;
76447;SDS011;65284;51.040;13.722;2023-06-26T01:23:29;19.10;;;13.85;;
76447;SDS011;65284;51.040;13.722;2023-06-26T01:28:49;7.72;;;4.82;;
76447;SDS011;65284;51.040;13.722;2023-06-26T01:31:17;7.95;;;5.35;;
76447;SDS011;65284;51.040;13.722;2023-06-26T01:33:45;6.93;;;5.20;;
76447;SDS011;65284;51.040;13.722;2023-06-26T01:36:12;7.40;;;4.93;;
76447;SDS011;65284;51.040;13.722;2023-06-26T01:38:39;7.32;;;5.00;;
76447;SDS011;65284;51.040;13.722;2023-06-26T01:41:06;7.30;;;5.22;;
76447;SDS011;65284;51.040;13.722;2023-06-26T01:46:19;7.32;;;4.82;;
76447;SDS011;65284;51.040;13.722;2023-06-26T01:49:26;8.32;;;5.00;;
76447;SDS011;65284;51.040;13.722;2023-06-26T01:57:46;8.52;;;4.63;;
76447;SDS011;65284;51.040;13.722;2023-06-26T02:00:14;8.70;;;4.90;;
76447;SDS011;65284;51.040;13.722;2023-06-26T02:02:44;9.00;;;5.22;;
76447;SDS011;65284;51.040;13.722;2023-06-26T02:05:11;9.23;;;4.95;;
76447;SDS011;65284;51.040;13.722;2023-06-26T02:07:38;8.93;;;5.10;;
76447;SDS011;65284;51.040;13.722;2023-06-26T02:10:05;7.20;;;4.97;;
76447;SDS011;65284;51.040;13.722;2023-06-26T02:12:34;7.07;;;5.18;;
76447;SDS011;65284;51.040;13.722;2023-06-26T02:15:02;6.93;;;5.10;;
76447;SDS011;65284;51.040;13.722;2023-06-26T02:17:29;7.38;;;4.93;;
76447;SDS011;65284;51.040;13.722;2023-06-26T02:19:56;7.07;;;4.97;;
76447;SDS011;65284;51.040;13.722;2023-06-26T02:22:22;7.95;;;4.93;;
76447;SDS011;65284;51.040;13.722;2023-06-26T02:24:49;8.85;;;4.93;;
76447;SDS011;65284;51.040;13.722;2023-06-26T02:27:15;8.80;;;5.22;;
76447;SDS011;65284;51.040;13.722;2023-06-26T02:29:41;11.88;;;5.22;;
76447;SDS011;65284;51.040;13.722;2023-06-26T02:32:08;7.97;;;5.25;;
76447;SDS011;65284;51.040;13.722;2023-06-26T02:34:35;8.00;;;5.00;;
76447;SDS011;65284;51.040;13.722;2023-06-26T02:37:02;9.20;;;5.40;;
76447;SDS011;65284;51.040;13.722;2023-06-26T02:39:28;9.77;;;5.80;;
76447;SDS011;65284;51.040;13.722;2023-06-26T02:41:55;11.05;;;6.22;;
76447;SDS011;65284;51.040;13.722;2023-06-26T02:44:21;10.20;;;6.10;;
76447;SDS011;65284;51.040;13.722;2023-06-26T02:46:47;9.27;;;5.80;;
76447;SDS011;65284;51.040;13.722;2023-06-26T02:49:14;8.68;;;5.68;;
76447;SDS011;65284;51.040;13.722;2023-06-26T02:51:40;9.18;;;5.07;;
76447;SDS011;65284;51.040;13.722;2023-06-26T02:54:07;11.45;;;5.85;;
76447;SDS011;65284;51.040;13.722;2023-06-26T02:56:33;9.30;;;5.85;;
76447;SDS011;65284;51.040;13.722;2023-06-26T02:59:05;9.38;;;5.80;;
76447;SDS011;65284;51.040;13.722;2023-06-26T03:01:31;9.23;;;5.80;;
76447;SDS011;65284;51.040;13.722;2023-06-26T03:03:58;9.38;;;6.10;;
76447;SDS011;65284;51.040;13.722;2023-06-26T03:06:27;8.50;;;5.53;;
76447;SDS011;65284;51.040;13.722;2023-06-26T03:08:53;9.88;;;5.28;;
76447;SDS011;65284;51.040;13.722;2023-06-26T03:11:20;10.02;;;5.40;;
76447;SDS011;65284;51.040;13.722;2023-06-26T03:13:46;9.60;;;5.40;;
76447;SDS011;65284;51.040;13.722;2023-06-26T03:16:13;8.68;;;5.22;;
76447;SDS011;65284;51.040;13.722;2023-06-26T03:18:39;8.68;;;5.40;;
76447;SDS011;65284;51.040;13.722;2023-06-26T03:21:06;8.13;;;5.32;;
76447;SDS011;65284;51.040;13.722;2023-06-26T03:23:32;8.13;;;5.90;;
76447;SDS011;65284;51.040;13.722;2023-06-26T03:25:59;20.63;;;14.88;;
76447;SDS011;65284;51.040;13.722;2023-06-26T03:28:25;22.75;;;16.42;;
76447;SDS011;65284;51.040;13.722;2023-06-26T03:30:52;11.27;;;6.63;;
76447;SDS011;65284;51.040;13.722;2023-06-26T03:33:18;9.18;;;5.35;;
76447;SDS011;65284;51.040;13.722;2023-06-26T03:35:45;11.25;;;5.88;;
76447;SDS011;65284;51.040;13.722;2023-06-26T03:38:11;8.73;;;6.28;;
76447;SDS011;65284;51.040;13.722;2023-06-26T03:40:38;9.77;;;6.30;;
76447;SDS011;65284;51.040;13.722;2023-06-26T03:43:04;8.85;;;5.93;;
76447;SDS011;65284;51.040;13.722;2023-06-26T03:45:31;12.15;;;6.18;;
76447;SDS011;65284;51.040;13.722;2023-06-26T03:47:57;9.63;;;5.82;;
76447;SDS011;65284;51.040;13.722;2023-06-26T03:50:24;8.88;;;6.03;;
76447;SDS011;65284;51.040;13.722;2023-06-26T03:52:50;9.07;;;5.93;;
76447;SDS011;65284;51.040;13.722;2023-06-26T03:55:17;10.73;;;6.60;;
76447;SDS011;65284;51.040;13.722;2023-06-26T03:57:45;10.55;;;6.47;;
76447;SDS011;65284;51.040;13.722;2023-06-26T04:00:12;10.80;;;6.35;;
76447;SDS011;65284;51.040;13.722;2023-06-26T04:02:39;9.68;;;6.63;;
76447;SDS011;65284;51.040;13.722;2023-06-26T04:05:05;10.38;;;6.45;;
76447;SDS011;65284;51.040;13.722;2023-06-26T04:07:32;9.38;;;6.20;;
76447;SDS011;65284;51.040;13.722;2023-06-26T04:09:59;11.15;;;6.20;;
76447;SDS011;65284;51.040;13.722;2023-06-26T04:12:25;9.50;;;6.57;;
76447;SDS011;65284;51.040;13.722;2023-06-26T04:14:51;10.57;;;6.22;;
76447;SDS011;65284;51.040;13.722;2023-06-26T04:17:18;11.82;;;6.53;;
76447;SDS011;65284;51.040;13.722;2023-06-26T04:19:44;12.00;;;6.90;;
76447;SDS011;65284;51.040;13.722;2023-06-26T04:22:11;9.93;;;6.03;;
76447;SDS011;65284;51.040;13.722;2023-06-26T04:24:37;9.07;;;6.40;;
76447;SDS011;65284;51.040;13.722;2023-06-26T04:27:04;9.18;;;6.00;;
76447;SDS011;65284;51.040;13.722;2023-06-26T04:29:31;11.93;;;6.88;;
76447;SDS011;65284;51.040;13.722;2023-06-26T04:31:58;11.18;;;6.75;;
76447;SDS011;65284;51.040;13.722;2023-06-26T04:34:25;10.70;;;6.60;;
76447;SDS011;65284;51.040;13.722;2023-06-26T04:36:52;10.75;;;6.30;;
76447;SDS011;65284;51.040;13.722;2023-06-26T04:39:19;12.25;;;6.38;;
76447;SDS011;65284;51.040;13.722;2023-06-26T04:41:45;9.85;;;5.90;;
76447;SDS011;65284;51.040;13.722;2023-06-26T04:44:12;11.57;;;6.95;;
76447;SDS011;65284;51.040;13.722;2023-06-26T04:46:38;12.70;;;7.25;;
76447;SDS011;65284;51.040;13.722;2023-06-26T04:49:10;8.90;;;6.50;;
76447;SDS011;65284;51.040;13.722;2023-06-26T04:51:36;9.02;;;6.53;;
76447;SDS011;65284;51.040;13.722;2023-06-26T04:54:12;10.15;;;6.63;;
76447;SDS011;65284;51.040;13.722;2023-06-26T04:56:38;10.05;;;6.78;;
76447;SDS011;65284;51.040;13.722;2023-06-26T04:59:06;8.07;;;5.75;;
76447;SDS011;65284;51.040;13.722;2023-06-26T05:01:32;13.15;;;6.32;;
76447;SDS011;65284;51.040;13.722;2023-06-26T05:03:59;9.65;;;6.10;;
76447;SDS011;65284;51.040;13.722;2023-06-26T05:06:25;10.55;;;6.90;;
76447;SDS011;65284;51.040;13.722;2023-06-26T05:08:52;13.00;;;7.13;;
76447;SDS011;65284;51.040;13.722;2023-06-26T05:11:18;9.90;;;6.55;;
76447;SDS011;65284;51.040;13.722;2023-06-26T05:13:45;10.90;;;6.13;;
76447;SDS011;65284;51.040;13.722;2023-06-26T05:16:11;10.00;;;6.28;;
76447;SDS011;65284;51.040;13.722;2023-06-26T05:18:38;9.25;;;6.20;;
76447;SDS011;65284;51.040;13.722;2023-06-26T05:21:04;11.10;;;6.25;;
76447;SDS011;65284;51.040;13.722;2023-06-26T05:23:31;12.68;;;6.35;;
76447;SDS011;65284;51.040;13.722;2023-06-26T05:26:00;10.93;;;6.57;;
76447;SDS011;65284;51.040;13.722;2023-06-26T05:28:27;9.15;;;6.50;;
76447;SDS011;65284;51.040;13.722;2023-06-26T05:30:54;9.18;;;6.10;;
76447;SDS011;65284;51.040;13.722;2023-06-26T05:33:21;9.40;;;6.53;;
76447;SDS011;65284;51.040;13.722;2023-06-26T05:35:51;8.23;;;6.22;;
76447;SDS011;65284;51.040;13.722;2023-06-26T05:40:46;10.55;;;6.10;;
76447;SDS011;65284;51.040;13.722;2023-06-26T05:43:12;13.00;;;7.65;;
76447;SDS011;65284;51.040;13.722;2023-06-26T05:45:39;10.50;;;7.60;;
76447;SDS011;65284;51.040;13.722;2023-06-26T05:48:06;10.48;;;6.07;;
76447;SDS011;65284;51.040;13.722;2023-06-26T05:50:33;9.50;;;6.03;;
76447;SDS011;65284;51.040;13.722;2023-06-26T05:53:00;8.30;;;5.97;;
76447;SDS011;65284;51.040;13.722;2023-06-26T05:55:29;10.60;;;6.40;;
76447;SDS011;65284;51.040;13.722;2023-06-26T05:57:56;9.20;;;5.97;;
76447;SDS011;65284;51.040;13.722;2023-06-26T06:00:25;9.35;;;6.25;;
76447;SDS011;65284;51.040;13.722;2023-06-26T06:02:52;12.85;;;6.00;;
76447;SDS011;65284;51.040;13.722;2023-06-26T06:05:21;11.00;;;6.30;;
76447;SDS011;65284;51.040;13.722;2023-06-26T06:07:48;10.05;;;6.22;;
76447;SDS011;65284;51.040;13.722;2023-06-26T06:10:15;9.23;;;5.88;;
76447;SDS011;65284;51.040;13.722;2023-06-26T06:12:42;7.32;;;5.63;;
76447;SDS011;65284;51.040;13.722;2023-06-26T06:15:08;8.95;;;5.53;;
76447;SDS011;65284;51.040;13.722;2023-06-26T06:17:35;9.27;;;5.68;;
76447;SDS011;65284;51.040;13.722;2023-06-26T06:20:01;9.18;;;6.05;;
76447;SDS011;65284;51.040;13.722;2023-06-26T06:22:29;9.05;;;5.85;;
76447;SDS011;65284;51.040;13.722;2023-06-26T06:24:55;9.23;;;5.93;;
76447;SDS011;65284;51.040;13.722;2023-06-26T06:27:22;8.68;;;5.63;;
76447;SDS011;65284;51.040;13.722;2023-06-26T06:29:49;8.48;;;6.07;;
76447;SDS011;65284;51.040;13.722;2023-06-26T06:32:15;8.93;;;6.38;;
76447;SDS011;65284;51.040;13.722;2023-06-26T06:34:42;10.05;;;7.07;;
76447;SDS011;65284;51.040;13.722;2023-06-26T06:37:09;8.43;;;5.93;;
76447;SDS011;65284;51.040;13.722;2023-06-26T06:39:35;8.85;;;5.95;;
76447;SDS011;65284;51.040;13.722;2023-06-26T06:42:02;8.15;;;5.88;;
76447;SDS011;65284;51.040;13.722;2023-06-26T06:44:29;9.90;;;5.85;;
76447;SDS011;65284;51.040;13.722;2023-06-26T06:46:59;7.80;;;6.13;;
76447;SDS011;65284;51.040;13.722;2023-06-26T06:49:25;9.50;;;5.63;;
76447;SDS011;65284;51.040;13.722;2023-06-26T06:51:51;7.50;;;5.13;;
76447;SDS011;65284;51.040;13.722;2023-06-26T06:54:18;9.00;;;5.53;;
76447;SDS011;65284;51.040;13.722;2023-06-26T06:56:45;8.73;;;5.70;;
76447;SDS011;65284;51.040;13.722;2023-06-26T06:59:12;9.75;;;6.00;;
76447;SDS011;65284;51.040;13.722;2023-06-26T07:01:39;8.23;;;5.53;;
76447;SDS011;65284;51.040;13.722;2023-06-26T07:04:06;7.68;;;5.10;;
76447;SDS011;65284;51.040;13.722;2023-06-26T07:06:32;11.02;;;5.93;;
76447;SDS011;65284;51.040;13.722;2023-06-26T07:08:59;9.68;;;5.32;;
76447;SDS011;65284;51.040;13.722;2023-06-26T07:11:25;8.10;;;5.22;;
76447;SDS011;65284;51.040;13.722;2023-06-26T07:13:52;9.65;;;5.22;;
76447;SDS011;65284;51.040;13.722;2023-06-26T07:16:18;8.88;;;5.18;;
76447;SDS011;65284;51.040;13.722;2023-06-26T07:18:45;9.63;;;5.60;;
76447;SDS011;65284;51.040;13.722;2023-06-26T07:21:11;8.25;;;5.53;;
76447;SDS011;65284;51.040;13.722;2023-06-26T07:23:37;7.60;;;5.47;;
76447;SDS011;65284;51.040;13.722;2023-06-26T07:26:04;9.40;;;5.30;;
76447;SDS011;65284;51.040;13.722;2023-06-26T07:28:31;9.95;;;5.72;;
76447;SDS011;65284;51.040;13.722;2023-06-26T07:30:57;8.18;;;5.55;;
76447;SDS011;65284;51.040;13.722;2023-06-26T07:33:24;11.95;;;6.65;;
76447;SDS011;65284;51.040;13.722;2023-06-26T07:35:50;11.23;;;6.25;;
76447;SDS011;65284;51.040;13.722;2023-06-26T07:38:17;8.05;;;5.65;;
76447;SDS011;65284;51.040;13.722;2023-06-26T07:40:43;9.07;;;5.90;;
76447;SDS011;65284;51.040;13.722;2023-06-26T07:43:10;11.38;;;5.82;;
76447;SDS011;65284;51.040;13.722;2023-06-26T07:45:36;6.70;;;4.60;;
76447;SDS011;65284;51.040;13.722;2023-06-26T07:48:02;9.52;;;5.53;;
76447;SDS011;65284;51.040;13.722;2023-06-26T07:50:29;7.40;;;5.35;;
76447;SDS011;65284;51.040;13.722;2023-06-26T07:52:56;9.60;;;5.38;;
76447;SDS011;65284;51.040;13.722;2023-06-26T07:55:23;7.32;;;5.20;;
76447;SDS011;65284;51.040;13.722;2023-06-26T07:57:49;7.47;;;5.15;;
76447;SDS011;65284;51.040;13.722;2023-06-26T08:02:44;8.25;;;5.70;;
76447;SDS011;65284;51.040;13.722;2023-06-26T08:05:11;8.88;;;5.28;;
76447;SDS011;65284;51.040;13.722;2023-06-26T08:07:38;7.72;;;5.43;;
76447;SDS011;65284;51.040;13.722;2023-06-26T08:10:04;6.97;;;5.40;;
76447;SDS011;65284;51.040;13.722;2023-06-26T08:12:31;10.30;;;6.22;;
76447;SDS011;65284;51.040;13.722;2023-06-26T08:14:58;8.75;;;7.07;;
76447;SDS011;65284;51.040;13.722;2023-06-26T08:17:24;8.77;;;5.57;;
76447;SDS011;65284;51.040;13.722;2023-06-26T08:19:54;9.40;;;5.65;;
76447;SDS011;65284;51.040;13.722;2023-06-26T08:22:20;8.85;;;5.10;;
76447;SDS011;65284;51.040;13.722;2023-06-26T08:24:47;10.75;;;5.55;;
76447;SDS011;65284;51.040;13.722;2023-06-26T08:27:13;8.43;;;4.80;;
76447;SDS011;65284;51.040;13.722;2023-06-26T08:29:40;9.27;;;5.47;;
76447;SDS011;65284;51.040;13.722;2023-06-26T08:32:06;9.77;;;5.57;;
76447;SDS011;65284;51.040;13.722;2023-06-26T08:34:33;8.65;;;5.05;;
76447;SDS011;65284;51.040;13.722;2023-06-26T08:36:59;8.30;;;5.00;;
76447;SDS011;65284;51.040;13.722;2023-06-26T08:39:25;6.82;;;5.20;;
76447;SDS011;65284;51.040;13.722;2023-06-26T08:41:52;7.35;;;5.18;;
76447;SDS011;65284;51.040;13.722;2023-06-26T08:44:19;6.97;;;5.10;;
76447;SDS011;65284;51.040;13.722;2023-06-26T08:46:50;8.27;;;5.38;;
76447;SDS011;65284;51.040;13.722;2023-06-26T08:49:19;9.93;;;5.70;;
76447;SDS011;65284;51.040;13.722;2023-06-26T08:51:59;8.00;;;5.38;;
76447;SDS011;65284;51.040;13.722;2023-06-26T08:54:33;6.90;;;5.05;;
76447;SDS011;65284;51.040;13.722;2023-06-26T08:57:05;7.10;;;4.88;;
76447;SDS011;65284;51.040;13.722;2023-06-26T08:59:33;8.07;;;5.10;;
76447;SDS011;65284;51.040;13.722;2023-06-26T09:02:00;6.78;;;5.30;;
76447;SDS011;65284;51.040;13.722;2023-06-26T09:04:27;7.93;;;5.20;;
76447;SDS011;65284;51.040;13.722;2023-06-26T09:06:54;9.10;;;5.20;;
76447;SDS011;65284;51.040;13.722;2023-06-26T09:09:20;8.43;;;6.13;;
76447;SDS011;65284;51.040;13.722;2023-06-26T09:11:47;7.10;;;5.15;;
76447;SDS011;65284;51.040;13.722;2023-06-26T09:14:13;7.30;;;5.18;;
76447;SDS011;65284;51.040;13.722;2023-06-26T09:16:41;7.60;;;5.32;;
76447;SDS011;65284;51.040;13.722;2023-06-26T09:19:11;8.00;;;5.30;;
76447;SDS011;65284;51.040;13.722;2023-06-26T09:21:42;8.48;;;5.47;;
76447;SDS011;65284;51.040;13.722;2023-06-26T09:24:09;7.38;;;5.25;;
76447;SDS011;65284;51.040;13.722;2023-06-26T09:26:36;8.55;;;5.18;;
76447;SDS011;65284;51.040;13.722;2023-06-26T09:29:04;8.35;;;5.43;;
76447;SDS011;65284;51.040;13.722;2023-06-26T09:31:33;8.23;;;5.20;;
76447;SDS011;65284;51.040;13.722;2023-06-26T09:34:07;6.80;;;5.28;;
76447;SDS011;65284;51.040;13.722;2023-06-26T09:36:34;7.70;;;5.38;;
76447;SDS011;65284;51.040;13.722;2023-06-26T09:39:06;7.65;;;5.28;;
76447;SDS011;65284;51.040;13.722;2023-06-26T09:41:37;7.43;;;5.25;;
76447;SDS011;65284;51.040;13.722;2023-06-26T09:44:05;7.25;;;5.18;;
76447;SDS011;65284;51.040;13.722;2023-06-26T09:46:32;7.35;;;4.72;;
76447;SDS011;65284;51.040;13.722;2023-06-26T09:49:07;6.03;;;4.40;;
76447;SDS011;65284;51.040;13.722;2023-06-26T09:51:37;7.38;;;4.82;;
76447;SDS011;65284;51.040;13.722;2023-06-26T09:54:04;7.20;;;5.00;;
76447;SDS011;65284;51.040;13.722;2023-06-26T09:56:32;7.57;;;4.95;;
76447;SDS011;65284;51.040;13.722;2023-06-26T09:59:00;6.78;;;4.47;;
76447;SDS011;65284;51.040;13.722;2023-06-26T10:01:28;5.75;;;4.25;;
76447;SDS011;65284;51.040;13.722;2023-06-26T10:03:55;5.38;;;4.18;;
76447;SDS011;65284;51.040;13.722;2023-06-26T10:06:28;6.18;;;4.50;;
76447;SDS011;65284;51.040;13.722;2023-06-26T10:09:02;7.57;;;4.30;;
76447;SDS011;65284;51.040;13.722;2023-06-26T10:11:34;8.25;;;4.65;;
76447;SDS011;65284;51.040;13.722;2023-06-26T10:14:06;6.53;;;4.45;;
76447;SDS011;65284;51.040;13.722;2023-06-26T10:16:43;5.95;;;3.90;;
76447;SDS011;65284;51.040;13.722;2023-06-26T10:19:10;6.45;;;3.88;;
76447;SDS011;65284;51.040;13.722;2023-06-26T10:21:39;6.53;;;4.35;;
76447;SDS011;65284;51.040;13.722;2023-06-26T10:24:06;7.13;;;3.90;;
76447;SDS011;65284;51.040;13.722;2023-06-26T10:26:38;6.10;;;4.53;;
76447;SDS011;65284;51.040;13.722;2023-06-26T10:29:10;5.38;;;3.83;;
76447;SDS011;65284;51.040;13.722;2023-06-26T10:31:38;5.93;;;4.07;;
76447;SDS011;65284;51.040;13.722;2023-06-26T10:34:08;5.93;;;4.10;;
76447;SDS011;65284;51.040;13.722;2023-06-26T10:36:35;5.85;;;4.47;;
76447;SDS011;65284;51.040;13.722;2023-06-26T10:39:05;6.72;;;4.47;;
76447;SDS011;65284;51.040;13.722;2023-06-26T10:41:39;5.70;;;4.50;;
76447;SDS011;65284;51.040;13.722;2023-06-26T10:44:29;5.82;;;4.45;;
76447;SDS011;65284;51.040;13.722;2023-06-26T10:47:08;7.18;;;4.40;;
76447;SDS011;65284;51.040;13.722;2023-06-26T10:49:36;5.60;;;4.20;;
76447;SDS011;65284;51.040;13.722;2023-06-26T10:52:03;5.78;;;4.50;;
76447;SDS011;65284;51.040;13.722;2023-06-26T10:54:30;6.88;;;4.63;;
76447;SDS011;65284;51.040;13.722;2023-06-26T10:56:58;7.72;;;4.40;;
76447;SDS011;65284;51.040;13.722;2023-06-26T10:59:28;6.93;;;3.83;;
76447;SDS011;65284;51.040;13.722;2023-06-26T11:02:03;5.88;;;4.00;;
76447;SDS011;65284;51.040;13.722;2023-06-26T11:07:24;6.25;;;4.30;;
76447;SDS011;65284;51.040;13.722;2023-06-26T11:12:43;6.80;;;4.47;;
76447;SDS011;65284;51.040;13.722;2023-06-26T11:15:14;5.82;;;4.30;;
76447;SDS011;65284;51.040;13.722;2023-06-26T11:17:42;6.85;;;4.18;;
76447;SDS011;65284;51.040;13.722;2023-06-26T11:20:10;7.88;;;4.70;;
76447;SDS011;65284;51.040;13.722;2023-06-26T11:25:07;5.53;;;3.83;;
76447;SDS011;65284;51.040;13.722;2023-06-26T11:30:05;5.63;;;4.20;;
76447;SDS011;65284;51.040;13.722;2023-06-26T11:32:33;4.53;;;3.63;;
76447;SDS011;65284;51.040;13.722;2023-06-26T11:35:00;5.60;;;3.90;;
76447;SDS011;65284;51.040;13.722;2023-06-26T11:37:27;7.00;;;4.40;;
76447;SDS011;65284;51.040;13.722;2023-06-26T11:39:54;5.85;;;3.85;;
76447;SDS011;65284;51.040;13.722;2023-06-26T11:42:20;5.75;;;4.22;;
76447;SDS011;65284;51.040;13.722;2023-06-26T11:44:47;6.13;;;4.05;;
76447;SDS011;65284;51.040;13.722;2023-06-26T11:47:14;7.03;;;4.18;;
76447;SDS011;65284;51.040;13.722;2023-06-26T11:49:45;6.50;;;3.83;;
76447;SDS011;65284;51.040;13.722;2023-06-26T11:52:14;5.38;;;3.80;;
76447;SDS011;65284;51.040;13.722;2023-06-26T11:54:42;6.20;;;4.10;;
76447;SDS011;65284;51.040;13.722;2023-06-26T11:57:13;6.13;;;3.63;;
76447;SDS011;65284;51.040;13.722;2023-06-26T11:59:40;6.68;;;3.90;;
76447;SDS011;65284;51.040;13.722;2023-06-26T12:02:07;5.38;;;3.45;;
76447;SDS011;65284;51.040;13.722;2023-06-26T12:04:37;5.90;;;3.95;;
76447;SDS011;65284;51.040;13.722;2023-06-26T12:07:05;5.22;;;4.10;;
76447;SDS011;65284;51.040;13.722;2023-06-26T12:09:45;5.75;;;4.07;;
76447;SDS011;65284;51.040;13.722;2023-06-26T12:12:14;8.38;;;4.03;;
76447;SDS011;65284;51.040;13.722;2023-06-26T12:14:42;5.47;;;4.00;;
76447;SDS011;65284;51.040;13.722;2023-06-26T12:17:10;6.20;;;4.18;;
76447;SDS011;65284;51.040;13.722;2023-06-26T12:19:38;5.65;;;4.13;;
76447;SDS011;65284;51.040;13.722;2023-06-26T12:22:06;5.78;;;4.30;;
76447;SDS011;65284;51.040;13.722;2023-06-26T12:24:33;6.55;;;4.50;;
76447;SDS011;65284;51.040;13.722;2023-06-26T12:27:01;7.22;;;4.20;;
76447;SDS011;65284;51.040;13.722;2023-06-26T12:29:29;6.88;;;3.95;;
76447;SDS011;65284;51.040;13.722;2023-06-26T12:31:59;6.28;;;4.15;;
76447;SDS011;65284;51.040;13.722;2023-06-26T12:34:27;5.65;;;4.10;;
76447;SDS011;65284;51.040;13.722;2023-06-26T12:37:00;6.07;;;4.32;;
76447;SDS011;65284;51.040;13.722;2023-06-26T12:39:28;5.78;;;3.65;;
76447;SDS011;65284;51.040;13.722;2023-06-26T12:41:56;7.45;;;4.20;;
76447;SDS011;65284;51.040;13.722;2023-06-26T12:44:27;5.30;;;4.05;;
76447;SDS011;65284;51.040;13.722;2023-06-26T12:46:56;5.70;;;3.60;;
76447;SDS011;65284;51.040;13.722;2023-06-26T12:49:36;8.25;;;4.28;;
76447;SDS011;65284;51.040;13.722;2023-06-26T12:52:05;6.10;;;4.40;;
76447;SDS011;65284;51.040;13.722;2023-06-26T12:54:33;6.28;;;3.80;;
76447;SDS011;65284;51.040;13.722;2023-06-26T12:57:00;7.25;;;4.60;;
76447;SDS011;65284;51.040;13.722;2023-06-26T12:59:27;6.28;;;4.07;;
76447;SDS011;65284;51.040;13.722;2023-06-26T13:01:53;5.65;;;4.13;;
76447;SDS011;65284;51.040;13.722;2023-06-26T13:04:20;6.57;;;4.05;;
76447;SDS011;65284;51.040;13.722;2023-06-26T13:06:47;7.28;;;4.53;;
76447;SDS011;65284;51.040;13.722;2023-06-26T13:09:13;5.50;;;3.60;;
76447;SDS011;65284;51.040;13.722;2023-06-26T13:11:40;7.78;;;4.28;;
76447;SDS011;65284;51.040;13.722;2023-06-26T13:14:06;5.78;;;3.80;;
76447;SDS011;65284;51.040;13.722;2023-06-26T13:16:37;6.65;;;4.10;;
76447;SDS011;65284;51.040;13.722;2023-06-26T13:19:04;7.40;;;3.95;;
76447;SDS011;65284;51.040;13.722;2023-06-26T13:21:31;5.35;;;3.75;;
76447;SDS011;65284;51.040;13.722;2023-06-26T13:23:57;5.90;;;3.88;;
76447;SDS011;65284;51.040;13.722;2023-06-26T13:26:25;6.25;;;4.20;;
76447;SDS011;65284;51.040;13.722;2023-06-26T13:29:02;7.32;;;4.20;;
76447;SDS011;65284;51.040;13.722;2023-06-26T13:31:28;6.68;;;3.78;;
76447;SDS011;65284;51.040;13.722;2023-06-26T13:33:56;5.75;;;4.25;;
76447;SDS011;65284;51.040;13.722;2023-06-26T13:36:24;7.00;;;3.95;;
76447;SDS011;65284;51.040;13.722;2023-06-26T13:38:51;5.68;;;4.30;;
76447;SDS011;65284;51.040;13.722;2023-06-26T13:41:22;5.60;;;4.10;;
76447;SDS011;65284;51.040;13.722;2023-06-26T13:43:49;6.90;;;4.00;;
76447;SDS011;65284;51.040;13.722;2023-06-26T13:46:16;5.03;;;3.70;;
76447;SDS011;65284;51.040;13.722;2023-06-26T13:48:44;5.68;;;3.80;;
76447;SDS011;65284;51.040;13.722;2023-06-26T13:51:11;5.97;;;3.85;;
76447;SDS011;65284;51.040;13.722;2023-06-26T13:53:37;5.82;;;4.18;;
76447;SDS011;65284;51.040;13.722;2023-06-26T13:56:04;7.40;;;3.90;;
76447;SDS011;65284;51.040;13.722;2023-06-26T13:58:31;5.72;;;4.15;;
76447;SDS011;65284;51.040;13.722;2023-06-26T14:00:58;5.57;;;3.83;;
76447;SDS011;65284;51.040;13.722;2023-06-26T14:03:26;6.20;;;4.30;;
76447;SDS011;65284;51.040;13.722;2023-06-26T14:05:54;6.80;;;3.83;;
76447;SDS011;65284;51.040;13.722;2023-06-26T14:08:20;6.68;;;4.50;;
76447;SDS011;65284;51.040;13.722;2023-06-26T14:10:47;6.18;;;3.90;;
76447;SDS011;65284;51.040;13.722;2023-06-26T14:13:13;6.03;;;3.88;;
76447;SDS011;65284;51.040;13.722;2023-06-26T14:15:41;6.53;;;4.13;;
76447;SDS011;65284;51.040;13.722;2023-06-26T14:18:08;6.80;;;3.95;;
76447;SDS011;65284;51.040;13.722;2023-06-26T14:20:35;6.63;;;4.40;;
76447;SDS011;65284;51.040;13.722;2023-06-26T14:23:03;5.57;;;4.10;;
76447;SDS011;65284;51.040;13.722;2023-06-26T14:25:29;7.35;;;4.25;;
76447;SDS011;65284;51.040;13.722;2023-06-26T14:27:56;6.75;;;4.18;;
76447;SDS011;65284;51.040;13.722;2023-06-26T14:30:24;8.38;;;4.15;;
76447;SDS011;65284;51.040;13.722;2023-06-26T14:32:50;7.78;;;4.35;;
76447;SDS011;65284;51.040;13.722;2023-06-26T14:35:17;7.38;;;4.38;;
76447;SDS011;65284;51.040;13.722;2023-06-26T14:37:43;6.20;;;4.55;;
76447;SDS011;65284;51.040;13.722;2023-06-26T14:40:10;7.78;;;4.05;;
76447;SDS011;65284;51.040;13.722;2023-06-26T14:42:37;6.13;;;4.30;;
76447;SDS011;65284;51.040;13.722;2023-06-26T14:45:04;6.25;;;4.30;;
76447;SDS011;65284;51.040;13.722;2023-06-26T14:47:32;5.63;;;4.10;;
76447;SDS011;65284;51.040;13.722;2023-06-26T14:49:58;5.85;;;4.32;;
76447;SDS011;65284;51.040;13.722;2023-06-26T14:52:25;8.35;;;4.65;;
76447;SDS011;65284;51.040;13.722;2023-06-26T14:54:51;5.97;;;3.80;;
76447;SDS011;65284;51.040;13.722;2023-06-26T14:57:18;9.32;;;4.35;;
76447;SDS011;65284;51.040;13.722;2023-06-26T14:59:44;16.42;;;12.77;;
76447;SDS011;65284;51.040;13.722;2023-06-26T15:02:11;5.47;;;4.43;;